Arenas Valley, New Mexico
Current Conditions -  °F | °C
As of 10:15 AM on Sunday 23 Nov 2014 (Local Time) from KSVC Reporting Station
Clear Clear  
Wind Chill: 52°   Ceiling: Unl
Heat Index: 52°   Visibility: 10mi
Dew Point: 25°   Wind: 25mph
Humidity: 35%   Direction: 300°WNW
Pressure: 29.99"   Gusts: 36mph
Location:  32.79°N, 108.18°W
Report Text: KSVC 231715Z AUTO 30022G31KT 10SM CLR 11/M04 A2999 RMK AO2
Loading
Personal Weather Stations






























Interactive Weather Map New forecast layout! Learn more

10-Day Weather Forecast

Advertisements
Track Severe Weather on mobile